This is the latest recevied weather packets stored in our database for station/object WD7OO. If no packets are shown the sender has not sent any weather packets the latest 10 day(s).
| Time | Temp. | Humidity | Pressure | Rain* | Wind** | Luminosity | Snow |
|---|---|---|---|---|---|---|---|
| 1778105281 | 12.78° C | 43% | 1013.5 hPa | 0 mm | - | 134 W/m² | - |
| 1778104976 | 12.78° C | 44% | 1013.5 hPa | 0 mm | - | 128 W/m² | - |
| 1778104673 | 12.78° C | 47% | 1013.2 hPa | 0 mm | - | 143 W/m² | - |
| 1778104369 | 13.33° C | 43% | 1013.5 hPa | 0 mm | - | 164 W/m² | - |
| 1778104065 | 12.78° C | 43% | 1013.6 hPa | 0 mm | - | 170 W/m² | - |
| 1778103763 | 12.78° C | 42% | 1013.5 hPa | 0 mm | - | 209 W/m² | - |
| 1778103461 | 12.78° C | 42% | 1013.4 hPa | 0 mm | - | 157 W/m² | - |
| 1778103158 | 12.78° C | 47% | 1013.4 hPa | 0 mm | - | 144 W/m² | - |
| 1778102855 | 12.78° C | 42% | 1013.5 hPa | 0 mm | - | 148 W/m² | - |
| 1778102551 | 12.78° C | 42% | 1013.7 hPa | 0 mm | - | 145 W/m² | - |
| 1778102246 | 12.78° C | 43% | 1013.5 hPa | 0 mm | - | 148 W/m² | - |
| 1778101942 | 12.78° C | 39% | 1013.6 hPa | 0 mm | - | 168 W/m² | - |
| 1778101639 | 12.78° C | 40% | 1013.6 hPa | 0 mm | - | 184 W/m² | - |
| 1778101336 | 14.44° C | 39% | 1013.5 hPa | 0 mm | - | 205 W/m² | - |
| 1778101034 | 13.89° C | 43% | 1013.4 hPa | 0 mm | - | 585 W/m² | - |
| 1778100728 | 12.78° C | 40% | 1013.7 hPa | 0 mm | - | 239 W/m² | - |
| 1778100426 | 13.33° C | 40% | 1013.7 hPa | 0 mm | - | 189 W/m² | - |
| 1778100123 | 13.33° C | 40% | 1013.6 hPa | 0 mm | - | 294 W/m² | - |
| 1778099821 | 12.78° C | 41% | 1013.8 hPa | 0 mm | - | 248 W/m² | - |
| 1778099518 | 13.33° C | 38% | 1014.1 hPa | 0 mm | - | 229 W/m² | - |
| 1778099216 | 13.33° C | 45% | 1014 hPa | 0 mm | - | 476 W/m² | - |
| 1778098911 | 13.33° C | 39% | 1013.9 hPa | 0 mm | - | 534 W/m² | - |
| 1778098609 | 13.33° C | 41% | 1014 hPa | 0 mm | - | 342 W/m² | - |
| 1778098305 | 13.33° C | 36% | 1013.9 hPa | 0 mm | - | 531 W/m² | - |
| 1778098002 | 12.78° C | 43% | 1014.1 hPa | 0 mm | - | 335 W/m² | - |
* Rain latest hour (hover to see other rain measurements)
** Current wind speed in m/s (hover to see current wind gust speed)